createdAt,value
2023-03-29T03:58:56.674Z,0.00
2023-03-29T03:59:57.538Z,0.00
2023-03-29T04:00:56.476Z,0.00
2023-03-29T04:01:56.689Z,0.00
2023-03-29T04:02:56.897Z,0.00
2023-03-29T04:03:57.008Z,0.00
2023-03-29T04:04:57.024Z,0.00
2023-03-29T04:05:57.225Z,0.00
2023-03-29T04:06:57.339Z,0.00
2023-03-29T04:07:57.449Z,0.00
2023-03-29T04:08:57.588Z,0.00
2023-03-29T04:09:57.740Z,0.00
2023-03-29T04:10:57.846Z,0.00
2023-03-29T04:11:57.986Z,0.00
2023-03-29T04:12:58.119Z,0.00
2023-03-29T04:13:58.295Z,0.00
2023-03-29T04:14:58.385Z,0.00
2023-03-29T04:16:01.419Z,0.00
2023-03-29T04:16:58.655Z,0.00
2023-03-29T04:17:58.844Z,0.00
2023-03-29T04:18:58.946Z,0.00
2023-03-29T04:19:59.020Z,0.00
2023-03-29T04:20:59.231Z,0.00
2023-03-29T04:21:59.323Z,0.00
2023-03-29T04:22:59.446Z,0.00
2023-03-29T04:23:59.529Z,0.00
2023-03-29T04:24:59.695Z,0.00
2023-03-29T04:25:59.858Z,0.00
2023-03-29T04:27:00.022Z,0.00
2023-03-29T04:28:00.148Z,0.00
2023-03-29T04:29:00.286Z,0.00
2023-03-29T04:30:00.421Z,0.00
2023-03-29T04:31:00.794Z,0.00
2023-03-29T04:32:00.769Z,0.00
2023-03-29T04:33:00.901Z,0.00
2023-03-29T04:34:00.932Z,0.00
2023-03-29T04:35:01.022Z,0.00
2023-03-29T04:36:01.252Z,0.00
2023-03-29T04:37:01.334Z,0.00
2023-03-29T04:38:01.506Z,0.00
2023-03-29T04:39:01.739Z,0.00
2023-03-29T04:40:01.749Z,0.00
2023-03-29T04:41:02.064Z,0.00
2023-03-29T04:42:02.033Z,0.00
2023-03-29T04:43:02.204Z,0.00
2023-03-29T04:44:02.244Z,0.00
2023-03-29T04:45:02.415Z,0.00
2023-03-29T04:46:02.549Z,0.00
2023-03-29T04:47:02.679Z,0.00
2023-03-29T04:48:02.927Z,0.00
2023-03-29T04:49:02.876Z,0.00
2023-03-29T04:50:03.055Z,0.00
2023-03-29T04:51:03.307Z,0.00
2023-03-29T04:52:03.246Z,0.00
2023-03-29T04:53:03.374Z,0.00
2023-03-29T04:54:03.417Z,1.00
2023-03-29T04:55:03.528Z,1.00
2023-03-29T04:56:03.676Z,1.00
2023-03-29T04:57:03.841Z,2.00
2023-03-29T04:58:03.952Z,2.00
2023-03-29T04:59:04.130Z,2.00
2023-03-29T05:00:04.215Z,1.00
2023-03-29T05:01:04.660Z,2.00
2023-03-29T05:02:04.542Z,1.00
2023-03-29T05:03:04.746Z,5.00
2023-03-29T05:04:04.794Z,2.00
2023-03-29T05:05:04.921Z,2.00
2023-03-29T05:06:05.027Z,2.00
2023-03-29T05:07:05.200Z,2.00
2023-03-29T05:08:05.317Z,5.00
2023-03-29T05:09:05.471Z,2.00
2023-03-29T05:10:05.654Z,3.00
2023-03-29T05:11:05.746Z,6.00
2023-03-29T05:12:05.881Z,8.00
2023-03-29T05:13:06.020Z,10.00
2023-03-29T05:14:06.170Z,10.00
2023-03-29T05:15:06.320Z,10.00
2023-03-29T05:16:06.484Z,10.00
2023-03-29T05:17:06.599Z,10.00
2023-03-29T05:18:06.766Z,8.00
2023-03-29T05:19:06.881Z,11.00
2023-03-29T05:20:07.035Z,14.00
2023-03-29T05:21:07.179Z,12.00
2023-03-29T05:22:07.331Z,17.00
2023-03-29T05:23:07.519Z,14.00
2023-03-29T05:24:07.594Z,20.00
2023-03-29T05:25:07.786Z,21.00
2023-03-29T05:26:07.927Z,23.00
2023-03-29T05:27:08.061Z,22.00
2023-03-29T05:28:08.220Z,29.00
2023-03-29T05:29:08.315Z,31.00
2023-03-29T05:30:08.421Z,28.00
2023-03-29T05:32:25.191Z,31.00
2023-03-29T05:33:26.718Z,32.00
2023-03-29T05:34:25.899Z,36.00
2023-03-29T05:35:25.050Z,37.00
2023-03-29T05:36:25.774Z,36.00
2023-03-29T05:37:26.322Z,38.00
2023-03-29T05:38:25.597Z,40.00
2023-03-29T05:39:25.865Z,37.00
2023-03-29T05:40:26.923Z,48.00
2023-03-29T05:41:26.115Z,46.00
2023-03-29T05:42:26.957Z,44.00
2023-03-29T05:43:27.206Z,51.00
2023-03-29T05:44:26.299Z,48.00
2023-03-29T05:45:26.466Z,48.00
2023-03-29T05:46:26.772Z,48.00
2023-03-29T05:47:27.726Z,48.00
2023-03-29T05:48:27.832Z,54.00
2023-03-29T05:49:27.175Z,52.00
2023-03-29T05:50:27.036Z,53.00
2023-03-29T05:51:27.409Z,61.00
2023-03-29T05:52:28.545Z,69.00
2023-03-29T05:53:28.957Z,69.00
2023-03-29T05:54:27.725Z,75.00
2023-03-29T05:55:27.982Z,72.00
2023-03-29T05:56:29.033Z,73.00
2023-03-29T05:57:28.968Z,81.00
2023-03-29T05:58:29.807Z,91.00
2023-03-29T05:59:29.226Z,90.00
2023-03-29T06:00:29.355Z,90.00
2023-03-29T06:01:29.696Z,93.00
2023-03-29T06:02:29.825Z,89.00
2023-03-29T06:03:29.991Z,82.00
2023-03-29T06:04:29.146Z,93.00
2023-03-29T06:05:29.248Z,93.00
2023-03-29T06:06:29.354Z,82.00
2023-03-29T06:07:29.640Z,89.00
2023-03-29T06:08:29.584Z,81.00
2023-03-29T06:09:29.688Z,86.00
2023-03-29T06:10:29.902Z,89.00
2023-03-29T06:11:30.295Z,81.00
2023-03-29T06:12:31.162Z,75.00
2023-03-29T06:13:30.691Z,74.00
2023-03-29T06:14:30.636Z,61.00
2023-03-29T06:15:32.293Z,60.00
2023-03-29T06:16:31.794Z,65.00
2023-03-29T06:17:30.882Z,75.00
2023-03-29T06:18:32.068Z,78.00
2023-03-29T06:19:31.661Z,81.00
2023-03-29T06:20:31.483Z,81.00
2023-03-29T06:21:31.504Z,76.00
2023-03-29T06:22:31.672Z,86.00
2023-03-29T06:23:32.841Z,81.00
2023-03-29T06:24:32.737Z,65.00
2023-03-29T06:25:32.852Z,61.00
2023-03-29T06:26:32.768Z,61.00
2023-03-29T06:27:32.461Z,65.00
2023-03-29T06:28:33.690Z,71.00
2023-03-29T06:29:32.775Z,67.00
2023-03-29T06:30:33.755Z,66.00
2023-03-29T06:31:33.693Z,74.00
2023-03-29T06:32:32.900Z,75.00
2023-03-29T06:33:34.373Z,94.00
2023-03-29T06:34:33.174Z,93.00
2023-03-29T06:35:33.540Z,85.00
2023-03-29T06:36:34.416Z,78.00
2023-03-29T06:37:33.861Z,77.00
2023-03-29T06:38:34.998Z,66.00
2023-03-29T06:39:33.715Z,58.00
2023-03-29T06:40:33.823Z,57.00
2023-03-29T06:41:34.075Z,60.00
2023-03-29T06:42:35.114Z,60.00
2023-03-29T06:43:34.411Z,59.00
2023-03-29T06:44:35.446Z,71.00
2023-03-29T06:45:34.784Z,75.00
2023-03-29T06:46:35.360Z,81.00
2023-03-29T06:47:36.338Z,75.00
2023-03-29T06:48:35.779Z,73.00
2023-03-29T06:49:35.160Z,82.00
2023-03-29T06:50:36.394Z,110.00
2023-03-29T06:51:35.695Z,87.00
2023-03-29T06:54:52.723Z,118.00
2023-03-29T06:55:52.054Z,120.00
2023-03-29T06:56:52.296Z,106.00
2023-03-29T06:57:52.972Z,100.00
2023-03-29T06:58:53.086Z,101.00
2023-03-29T06:59:52.288Z,114.00
2023-03-29T07:00:54.078Z,139.00
2023-03-29T07:01:53.004Z,135.00
2023-03-29T07:02:53.781Z,135.00
2023-03-29T07:03:54.141Z,132.00
2023-03-29T07:04:54.117Z,150.00
2023-03-29T07:05:54.105Z,160.00
2023-03-29T07:06:53.709Z,184.00
2023-03-29T07:07:53.527Z,231.00
2023-03-29T07:08:53.914Z,199.00
2023-03-29T07:09:55.307Z,199.00
2023-03-29T07:10:53.779Z,178.00
2023-03-29T07:11:54.293Z,192.00
2023-03-29T07:12:54.359Z,186.00
2023-03-29T07:13:55.403Z,193.00
2023-03-29T07:14:55.456Z,211.00
2023-03-29T07:15:54.549Z,213.00
2023-03-29T07:16:55.672Z,267.00
2023-03-29T07:17:55.196Z,216.00
2023-03-29T07:18:55.847Z,230.00
2023-03-29T07:19:56.546Z,213.00
2023-03-29T07:20:55.635Z,219.00
2023-03-29T07:21:56.655Z,217.00
2023-03-29T07:22:56.796Z,232.00
2023-03-29T07:23:55.720Z,224.00
2023-03-29T07:24:56.039Z,240.00
2023-03-29T07:25:55.946Z,232.00
2023-03-29T07:27:04.121Z,230.00
2023-03-29T07:27:58.866Z,210.00
2023-03-29T07:28:56.476Z,256.00
2023-03-29T07:29:57.235Z,260.00
2023-03-29T07:30:57.926Z,209.00
2023-03-29T07:31:56.618Z,189.00
2023-03-29T07:32:58.138Z,210.00
2023-03-29T07:33:57.899Z,232.00
2023-03-29T07:34:57.357Z,193.00
2023-03-29T07:35:57.509Z,191.00
2023-03-29T07:36:59.137Z,215.00
2023-03-29T07:37:59.255Z,213.00
2023-03-29T07:38:59.392Z,182.00
2023-03-29T07:39:58.207Z,215.00
2023-03-29T07:40:59.283Z,303.00
2023-03-29T07:41:58.089Z,307.00
2023-03-29T07:42:59.153Z,243.00
2023-03-29T07:43:59.341Z,252.00
2023-03-29T07:44:59.470Z,269.00
2023-03-29T07:45:59.669Z,269.00
2023-03-29T07:46:59.723Z,245.00
2023-03-29T07:47:59.078Z,247.00
2023-03-29T07:48:59.472Z,225.00
2023-03-29T07:49:59.502Z,212.00
2023-03-29T07:50:59.512Z,221.00
2023-03-29T07:51:59.494Z,251.00
2023-03-29T07:52:59.663Z,286.00
2023-03-29T07:53:59.963Z,273.00
2023-03-29T07:54:59.866Z,302.00
2023-03-29T07:56:00.163Z,392.00
2023-03-29T07:57:00.496Z,381.00
2023-03-29T07:58:00.471Z,322.00
2023-03-29T07:59:00.761Z,294.00
2023-03-29T08:00:01.978Z,280.00
2023-03-29T08:01:02.084Z,271.00
2023-03-29T08:02:02.002Z,278.00
2023-03-29T08:03:02.082Z,263.00
2023-03-29T08:04:02.077Z,187.00
2023-03-29T08:05:03.102Z,228.00
2023-03-29T08:06:03.114Z,207.00
2023-03-29T08:07:01.728Z,289.00
2023-03-29T08:08:02.128Z,355.00
2023-03-29T08:09:03.313Z,346.00
2023-03-29T08:10:02.054Z,335.00
2023-03-29T08:11:02.716Z,415.00
2023-03-29T08:12:03.086Z,471.00
2023-03-29T08:13:02.541Z,410.00
2023-03-29T08:14:03.353Z,329.00
2023-03-29T08:15:02.592Z,282.00
2023-03-29T08:16:03.094Z,223.00
2023-03-29T08:17:03.102Z,233.00
2023-03-29T08:20:23.148Z,221.00
2023-03-29T08:21:19.628Z,225.00
2023-03-29T08:22:19.489Z,242.00
2023-03-29T08:23:19.630Z,248.00
2023-03-29T08:24:21.085Z,280.00
2023-03-29T08:25:20.857Z,345.00
2023-03-29T08:26:20.950Z,341.00
2023-03-29T08:27:21.132Z,301.00
2023-03-29T08:28:20.610Z,347.00
2023-03-29T08:29:20.853Z,334.00
2023-03-29T08:30:20.599Z,369.00
2023-03-29T08:31:21.736Z,337.00
2023-03-29T08:32:21.816Z,313.00
2023-03-29T08:33:22.832Z,291.00
2023-03-29T08:34:21.370Z,293.00
2023-03-29T08:35:21.372Z,300.00
2023-03-29T08:36:22.302Z,328.00
2023-03-29T08:37:21.795Z,306.00
2023-03-29T08:38:21.858Z,287.00
2023-03-29T08:39:23.055Z,279.00
2023-03-29T08:40:22.219Z,287.00
2023-03-29T08:41:23.099Z,306.00
2023-03-29T08:42:23.166Z,315.00
2023-03-29T08:43:22.863Z,325.00
2023-03-29T08:44:24.250Z,292.00
2023-03-29T08:45:22.727Z,251.00
2023-03-29T08:46:23.324Z,249.00
2023-03-29T08:47:24.344Z,238.00
2023-03-29T08:48:23.453Z,238.00
2023-03-29T08:49:23.272Z,263.00
2023-03-29T08:50:23.761Z,288.00
2023-03-29T08:51:23.974Z,290.00
2023-03-29T08:52:24.594Z,314.00
2023-03-29T08:53:23.792Z,329.00
2023-03-29T08:54:23.837Z,364.00
2023-03-29T08:55:24.019Z,358.00
2023-03-29T08:56:25.090Z,348.00
2023-03-29T08:57:24.322Z,342.00
2023-03-29T08:58:24.786Z,337.00
2023-03-29T08:59:24.793Z,358.00
2023-03-29T09:00:26.713Z,361.00
2023-03-29T09:01:25.855Z,353.00
2023-03-29T09:02:25.066Z,338.00
2023-03-29T09:03:25.666Z,343.00
2023-03-29T09:04:26.168Z,360.00
2023-03-29T09:05:25.608Z,377.00
2023-03-29T09:06:25.473Z,390.00
2023-03-29T09:07:26.950Z,392.00
2023-03-29T09:08:26.991Z,380.00
2023-03-29T09:09:26.769Z,371.00
2023-03-29T09:10:26.153Z,387.00
2023-03-29T09:11:27.248Z,388.00
2023-03-29T09:12:26.535Z,436.00
2023-03-29T09:13:28.249Z,445.00
2023-03-29T09:14:26.541Z,433.00
2023-03-29T09:15:28.251Z,407.00
2023-03-29T09:16:27.355Z,352.00
2023-03-29T09:17:27.508Z,318.00
2023-03-29T09:18:27.071Z,311.00
2023-03-29T09:19:27.448Z,325.00
2023-03-29T09:20:28.353Z,332.00
2023-03-29T09:21:29.392Z,321.00
2023-03-29T09:22:27.825Z,312.00
2023-03-29T09:23:27.832Z,339.00
2023-03-29T09:24:28.944Z,386.00
2023-03-29T09:25:29.032Z,385.00
2023-03-29T09:26:28.266Z,383.00
2023-03-29T09:27:29.343Z,386.00
2023-03-29T09:28:28.542Z,381.00
2023-03-29T09:29:29.145Z,353.00
2023-03-29T09:30:29.346Z,348.00
2023-03-29T09:31:29.380Z,356.00
2023-03-29T09:32:29.489Z,340.00
2023-03-29T09:33:29.254Z,345.00
2023-03-29T09:34:29.972Z,365.00
2023-03-29T09:35:31.023Z,351.00
2023-03-29T09:36:29.894Z,340.00
2023-03-29T09:37:30.170Z,309.00
2023-03-29T09:38:30.985Z,307.00
2023-03-29T09:41:49.680Z,354.00
2023-03-29T09:42:47.474Z,343.00
2023-03-29T09:43:47.507Z,362.00
2023-03-29T09:44:46.635Z,398.00
2023-03-29T09:45:47.253Z,398.00
2023-03-29T09:46:47.837Z,445.00
2023-03-29T09:47:47.174Z,451.00
2023-03-29T09:48:47.551Z,468.00
2023-03-29T09:49:47.291Z,459.00
2023-03-29T09:50:48.684Z,474.00
2023-03-29T09:51:47.574Z,516.00
2023-03-29T09:52:47.885Z,514.00
2023-03-29T09:53:49.112Z,455.00
2023-03-29T09:54:48.031Z,436.00
2023-03-29T09:55:50.366Z,384.00
2023-03-29T09:56:49.316Z,383.00
2023-03-29T09:57:48.493Z,414.00
2023-03-29T09:58:48.631Z,385.00
2023-03-29T09:59:49.138Z,386.00
2023-03-29T10:00:48.947Z,386.00
2023-03-29T10:01:49.170Z,437.00
2023-03-29T10:13:21.918Z,573.00
2023-03-29T10:14:19.053Z,536.00
2023-03-29T10:15:29.399Z,531.00
2023-03-29T10:16:20.368Z,508.00
2023-03-29T10:17:18.860Z,702.00
2023-03-29T10:18:19.173Z,881.00
2023-03-29T10:19:19.134Z,686.00
2023-03-29T10:20:19.092Z,484.00
2023-03-29T10:21:19.088Z,518.00
2023-03-29T10:22:19.093Z,501.00
2023-03-29T10:23:19.354Z,467.00
2023-03-29T10:24:20.604Z,551.00
2023-03-29T10:25:20.683Z,691.00
2023-03-29T10:26:19.731Z,669.00
2023-03-29T10:27:20.398Z,700.00
2023-03-29T10:28:21.730Z,762.00
2023-03-29T10:29:21.461Z,585.00
2023-03-29T10:30:21.500Z,441.00
2023-03-29T10:31:20.892Z,421.00
2023-03-29T10:32:21.638Z,415.00
2023-03-29T10:33:21.634Z,534.00
2023-03-29T10:34:21.715Z,701.00
2023-03-29T10:35:21.999Z,654.00
2023-03-29T10:36:22.019Z,565.00
2023-03-29T10:37:21.397Z,670.00
2023-03-29T10:38:42.782Z,800.00
2023-03-29T10:39:21.775Z,868.00
2023-03-29T10:40:23.129Z,574.00
2023-03-29T10:41:21.720Z,529.00
2023-03-29T10:42:22.269Z,675.00
2023-03-29T10:43:23.236Z,709.00
2023-03-29T10:44:23.283Z,676.00
2023-03-29T10:45:23.332Z,467.00
2023-03-29T10:46:24.353Z,588.00
2023-03-29T10:47:22.812Z,586.00
2023-03-29T10:48:24.022Z,475.00
2023-03-29T10:49:24.287Z,381.00
2023-03-29T10:50:23.871Z,419.00
2023-03-29T10:51:24.503Z,600.00
2023-03-29T10:52:23.239Z,546.00
2023-03-29T10:53:24.559Z,447.00
2023-03-29T10:54:24.346Z,485.00
2023-03-29T10:55:23.818Z,420.00
2023-03-29T10:56:23.684Z,781.00
2023-03-29T10:57:24.400Z,490.00
2023-03-29T10:58:24.386Z,345.00
2023-03-29T10:59:25.776Z,368.00
2023-03-29T11:00:25.795Z,374.00
2023-03-29T11:01:24.460Z,430.00
2023-03-29T11:02:25.661Z,548.00
2023-03-29T11:03:24.816Z,651.00
2023-03-29T11:04:25.812Z,580.00
2023-03-29T11:05:26.987Z,603.00
2023-03-29T11:06:26.040Z,595.00
2023-03-29T11:07:25.253Z,493.00
2023-03-29T11:08:25.480Z,532.00
2023-03-29T11:09:26.499Z,383.00
2023-03-29T11:10:26.782Z,446.00
2023-03-29T11:11:25.847Z,714.00
2023-03-29T11:12:27.182Z,599.00
2023-03-29T11:13:26.525Z,864.00
2023-03-29T11:14:27.118Z,1051.00
2023-03-29T11:15:27.292Z,816.00
2023-03-29T11:16:26.810Z,645.00
2023-03-29T11:17:27.961Z,658.00
2023-03-29T11:18:28.441Z,711.00
2023-03-29T11:19:26.978Z,720.00
2023-03-29T11:20:27.410Z,647.00
2023-03-29T11:21:28.001Z,681.00
2023-03-29T11:22:27.779Z,684.00
2023-03-29T11:23:28.585Z,516.00
2023-03-29T11:24:28.452Z,406.00
2023-03-29T11:25:29.731Z,411.00
2023-03-29T11:26:29.070Z,325.00
2023-03-29T11:27:28.277Z,287.00
2023-03-29T11:28:29.097Z,328.00
2023-03-29T11:29:29.128Z,216.00
2023-03-29T11:30:28.788Z,238.00
2023-03-29T11:31:28.571Z,213.00
2023-03-29T11:32:28.986Z,381.00
2023-03-29T11:33:28.943Z,443.00
2023-03-29T11:34:29.132Z,331.00
2023-03-29T11:35:29.122Z,290.00
2023-03-29T11:36:29.150Z,385.00
2023-03-29T11:37:29.356Z,377.00
2023-03-29T11:38:29.761Z,321.00
2023-03-29T11:39:29.624Z,448.00
2023-03-29T11:42:47.116Z,588.00
2023-03-29T11:43:47.110Z,608.00
2023-03-29T11:44:47.013Z,538.00
2023-03-29T11:45:46.399Z,525.00
2023-03-29T11:46:46.900Z,578.00
2023-03-29T11:47:46.744Z,709.00
2023-03-29T11:48:48.317Z,605.00
2023-03-29T11:49:46.904Z,621.00
2023-03-29T11:50:48.373Z,632.00
2023-03-29T11:51:48.097Z,728.00
2023-03-29T11:52:48.237Z,798.00
2023-03-29T11:53:48.524Z,710.00
2023-03-29T11:54:48.502Z,634.00
2023-03-29T11:55:48.577Z,633.00
2023-03-29T11:56:49.239Z,568.00
2023-03-29T11:57:48.861Z,499.00
2023-03-29T11:58:48.196Z,529.00
2023-03-29T11:59:49.224Z,496.00
2023-03-29T12:00:48.745Z,508.00
2023-03-29T12:01:48.812Z,509.00
2023-03-29T12:02:49.576Z,549.00
2023-03-29T12:03:49.684Z,584.00
2023-03-29T12:04:48.837Z,617.00
2023-03-29T12:05:49.162Z,638.00
2023-03-29T12:06:49.312Z,609.00
2023-03-29T12:07:50.924Z,489.00
2023-03-29T12:08:49.795Z,662.00
2023-03-29T12:09:50.444Z,788.00
2023-03-29T12:10:50.654Z,1031.00
2023-03-29T12:11:51.062Z,813.00
2023-03-29T12:12:49.897Z,569.00
2023-03-29T12:13:50.356Z,451.00
2023-03-29T12:14:51.142Z,400.00
2023-03-29T12:15:51.238Z,442.00
2023-03-29T12:16:50.727Z,1200.00
2023-03-29T12:17:52.319Z,1715.00
2023-03-29T12:19:12.116Z,1281.00
2023-03-29T12:19:52.355Z,1055.00
2023-03-29T12:20:52.015Z,1062.00
2023-03-29T12:21:52.196Z,873.00
2023-03-29T12:22:52.306Z,928.00
2023-03-29T12:23:51.499Z,1002.00
2023-03-29T12:24:51.744Z,862.00
2023-03-29T12:25:52.807Z,740.00
2023-03-29T12:26:53.530Z,650.00
2023-03-29T12:27:52.614Z,521.00
2023-03-29T12:28:53.544Z,787.00
2023-03-29T12:29:52.531Z,720.00
2023-03-29T12:30:53.452Z,766.00
2023-03-29T12:31:53.725Z,801.00
2023-03-29T12:32:52.833Z,884.00
2023-03-29T12:33:54.181Z,888.00
2023-03-29T12:34:54.832Z,767.00
2023-03-29T12:35:54.424Z,626.00
2023-03-29T12:36:53.653Z,593.00
2023-03-29T12:37:54.259Z,676.00
2023-03-29T12:38:54.526Z,773.00
2023-03-29T12:39:53.657Z,829.00
2023-03-29T12:40:54.817Z,782.00
2023-03-29T12:41:54.953Z,753.00
2023-03-29T12:42:54.514Z,646.00
2023-03-29T12:43:55.783Z,608.00
2023-03-29T12:44:56.105Z,631.00
2023-03-29T12:45:54.989Z,626.00
2023-03-29T12:46:56.225Z,640.00
2023-03-29T12:47:55.766Z,1020.00
2023-03-29T12:48:55.689Z,803.00
2023-03-29T12:49:56.321Z,738.00
2023-03-29T12:50:55.938Z,878.00
2023-03-29T12:51:56.438Z,1008.00
2023-03-29T12:52:56.453Z,1124.00
2023-03-29T12:53:55.730Z,1298.00
2023-03-29T12:54:55.863Z,1049.00
2023-03-29T12:55:56.993Z,918.00
2023-03-29T12:56:56.325Z,862.00
2023-03-29T12:57:57.643Z,1180.00
2023-03-29T12:58:56.196Z,890.00
2023-03-29T12:59:56.725Z,1161.00
2023-03-29T13:00:57.702Z,1307.00
2023-03-29T13:01:56.948Z,1012.00
2023-03-29T13:02:57.768Z,881.00
2023-03-29T13:03:57.052Z,744.00
2023-03-29T13:07:14.333Z,988.00
2023-03-29T13:08:13.223Z,793.00
2023-03-29T13:09:14.385Z,681.00
2023-03-29T13:10:13.752Z,671.00
2023-03-29T13:11:13.785Z,831.00
2023-03-29T13:12:13.952Z,1566.00
2023-03-29T13:13:14.195Z,1851.00
2023-03-29T13:14:15.548Z,1337.00
2023-03-29T13:15:14.601Z,1194.00
2023-03-29T13:16:14.757Z,1162.00
2023-03-29T13:17:18.640Z,885.00
2023-03-29T13:18:15.681Z,848.00
2023-03-29T13:19:14.725Z,680.00
2023-03-29T13:20:15.848Z,713.00
2023-03-29T13:21:16.761Z,955.00
2023-03-29T13:22:16.172Z,1253.00
2023-03-29T13:23:17.788Z,952.00
2023-03-29T13:24:15.869Z,809.00
2023-03-29T13:25:15.889Z,778.00
2023-03-29T13:26:15.741Z,719.00
2023-03-29T13:27:16.253Z,763.00
2023-03-29T13:28:17.955Z,936.00
2023-03-29T13:29:17.209Z,1454.00
2023-03-29T13:30:17.768Z,1167.00
2023-03-29T13:31:17.451Z,915.00
2023-03-29T13:32:16.810Z,970.00
2023-03-29T13:33:16.691Z,1059.00
2023-03-29T13:34:17.153Z,857.00
2023-03-29T13:35:17.963Z,620.00
2023-03-29T13:36:18.318Z,679.00
2023-03-29T13:37:18.354Z,624.00
2023-03-29T13:38:18.366Z,542.00
2023-03-29T13:39:19.300Z,479.00
2023-03-29T13:40:17.733Z,464.00
2023-03-29T13:41:19.273Z,612.00
2023-03-29T13:42:17.973Z,1136.00
2023-03-29T13:43:18.055Z,871.00
2023-03-29T13:44:18.830Z,635.00
2023-03-29T13:45:19.294Z,592.00
2023-03-29T13:46:18.726Z,542.00
2023-03-29T13:47:19.233Z,610.00
2023-03-29T13:48:19.316Z,594.00
2023-03-29T13:49:19.276Z,524.00
2023-03-29T13:50:19.260Z,397.00
2023-03-29T13:51:19.265Z,401.00
2023-03-29T13:52:19.434Z,381.00
2023-03-29T13:53:19.735Z,415.00
2023-03-29T13:54:19.808Z,478.00
2023-03-29T13:55:20.896Z,416.00
2023-03-29T13:56:20.977Z,608.00
2023-03-29T13:57:21.063Z,615.00
2023-03-29T13:58:21.149Z,557.00
2023-03-29T13:59:20.785Z,532.00
2023-03-29T14:00:22.107Z,578.00
2023-03-29T14:01:21.090Z,520.00
2023-03-29T14:02:21.892Z,506.00
2023-03-29T14:03:22.106Z,559.00
2023-03-29T14:04:21.393Z,535.00
2023-03-29T14:05:22.159Z,534.00
2023-03-29T14:06:21.369Z,602.00
2023-03-29T14:07:21.730Z,622.00
2023-03-29T14:08:21.933Z,692.00
2023-03-29T14:09:23.374Z,681.00
2023-03-29T14:10:22.800Z,727.00
2023-03-29T14:11:22.268Z,747.00
2023-03-29T14:12:23.021Z,736.00
2023-03-29T14:13:23.352Z,611.00
2023-03-29T14:14:23.420Z,476.00
2023-03-29T14:15:22.774Z,484.00
2023-03-29T14:16:23.634Z,455.00
2023-03-29T14:17:23.688Z,426.00
2023-03-29T14:18:23.843Z,420.00
2023-03-29T14:19:24.712Z,373.00
2023-03-29T14:20:24.728Z,321.00
2023-03-29T14:21:23.755Z,384.00
2023-03-29T14:22:23.618Z,417.00
2023-03-29T14:23:23.784Z,414.00
2023-03-29T14:24:23.898Z,435.00
2023-03-29T14:25:24.817Z,402.00
2023-03-29T14:26:25.020Z,440.00
2023-03-29T14:27:24.104Z,536.00
2023-03-29T14:28:25.815Z,559.00
2023-03-29T14:31:41.106Z,549.00
2023-03-29T14:33:58.037Z,543.00
2023-03-29T14:34:58.033Z,526.00
2023-03-29T14:35:58.158Z,458.00
2023-03-29T14:36:58.847Z,423.00
2023-03-29T14:37:58.269Z,436.00
2023-03-29T14:38:58.442Z,455.00
2023-03-29T14:39:58.549Z,453.00
2023-03-29T14:40:57.733Z,419.00
2023-03-29T14:41:58.233Z,429.00
2023-03-29T14:42:58.910Z,500.00
2023-03-29T14:43:59.058Z,475.00
2023-03-29T14:44:58.716Z,424.00
2023-03-29T14:45:58.818Z,453.00
2023-03-29T14:46:58.733Z,474.00
2023-03-29T14:47:58.768Z,515.00
2023-03-29T14:48:58.856Z,659.00
2023-03-29T14:50:00.588Z,613.00
2023-03-29T14:51:00.644Z,568.00
2023-03-29T14:51:59.789Z,604.00
2023-03-29T14:53:00.517Z,484.00
2023-03-29T14:54:01.001Z,454.00
2023-03-29T14:55:00.676Z,474.00
2023-03-29T14:56:00.902Z,455.00
2023-03-29T14:57:01.727Z,327.00
2023-03-29T14:58:01.038Z,313.00
2023-03-29T14:59:01.729Z,325.00
2023-03-29T15:00:00.785Z,318.00
2023-03-29T15:01:01.921Z,327.00
2023-03-29T15:02:00.781Z,340.00
2023-03-29T15:03:01.922Z,339.00
2023-03-29T15:04:02.061Z,330.00
2023-03-29T15:05:02.096Z,319.00
2023-03-29T15:06:03.123Z,325.00
2023-03-29T15:07:02.319Z,326.00
2023-03-29T15:08:01.849Z,332.00
2023-03-29T15:09:06.586Z,361.00
2023-03-29T15:10:03.202Z,391.00
2023-03-29T15:11:02.910Z,417.00
2023-03-29T15:12:03.092Z,379.00
2023-03-29T15:13:02.559Z,370.00
2023-03-29T15:14:03.328Z,448.00
2023-03-29T15:15:04.361Z,438.00
2023-03-29T15:16:05.210Z,463.00
2023-03-29T15:17:03.756Z,502.00
2023-03-29T15:18:03.998Z,566.00
2023-03-29T15:19:04.067Z,598.00
2023-03-29T15:20:04.584Z,612.00
2023-03-29T15:21:04.570Z,622.00
2023-03-29T15:22:03.866Z,567.00
2023-03-29T15:23:04.656Z,576.00
2023-03-29T15:24:03.841Z,471.00
2023-03-29T15:25:04.129Z,435.00
2023-03-29T15:26:05.757Z,424.00
2023-03-29T15:27:04.371Z,437.00
2023-03-29T15:28:05.667Z,427.00
2023-03-29T15:29:05.900Z,470.00
2023-03-29T15:30:05.514Z,492.00
2023-03-29T15:31:08.246Z,469.00
2023-03-29T15:32:04.939Z,390.00
2023-03-29T15:33:06.072Z,384.00
2023-03-29T15:34:09.096Z,337.00
2023-03-29T15:35:05.714Z,300.00
2023-03-29T15:36:06.082Z,273.00
2023-03-29T15:37:06.954Z,301.00
2023-03-29T15:38:07.198Z,305.00
2023-03-29T15:39:05.809Z,326.00
2023-03-29T15:40:06.021Z,340.00
2023-03-29T15:41:07.156Z,336.00
2023-03-29T15:42:07.214Z,287.00
2023-03-29T15:43:06.748Z,396.00
2023-03-29T15:44:07.470Z,377.00
2023-03-29T15:45:07.081Z,340.00
2023-03-29T15:46:07.354Z,353.00
2023-03-29T15:47:07.106Z,346.00
2023-03-29T15:48:07.217Z,336.00
2023-03-29T15:49:08.210Z,377.00
2023-03-29T15:50:08.368Z,488.00
2023-03-29T15:51:07.812Z,522.00
2023-03-29T15:52:07.641Z,541.00
2023-03-29T15:53:15.219Z,475.00
2023-03-29T15:54:09.251Z,427.00
2023-03-29T15:55:09.448Z,394.00
2023-03-29T15:56:08.480Z,431.00
2023-03-29T15:57:09.342Z,419.00
2023-03-29T16:00:28.616Z,456.00
2023-03-29T16:12:23.870Z,206.00
2023-03-29T16:13:24.912Z,199.00
2023-03-29T16:14:24.866Z,137.00
2023-03-29T16:15:24.941Z,95.00
2023-03-29T16:16:24.152Z,103.00
2023-03-29T16:17:25.901Z,109.00
2023-03-29T16:18:25.709Z,117.00
2023-03-29T16:19:24.492Z,126.00
2023-03-29T16:20:24.628Z,152.00
2023-03-29T16:21:25.150Z,174.00
2023-03-29T16:22:26.129Z,213.00
2023-03-29T16:23:25.002Z,220.00
2023-03-29T16:24:26.261Z,215.00
2023-03-29T16:25:27.228Z,210.00
2023-03-29T16:26:25.422Z,209.00
2023-03-29T16:27:25.783Z,242.00
2023-03-29T16:28:25.826Z,257.00
2023-03-29T16:29:27.534Z,239.00
2023-03-29T16:30:26.296Z,213.00
2023-03-29T16:31:27.189Z,212.00
2023-03-29T16:32:27.585Z,210.00
2023-03-29T16:33:26.248Z,183.00
2023-03-29T16:34:27.652Z,213.00
2023-03-29T16:35:27.531Z,229.00
2023-03-29T16:36:26.802Z,225.00
2023-03-29T16:37:28.528Z,192.00
2023-03-29T16:38:28.870Z,167.00
2023-03-29T16:39:28.075Z,161.00
2023-03-29T16:40:27.746Z,173.00
2023-03-29T16:41:28.554Z,165.00
2023-03-29T16:42:28.519Z,171.00
2023-03-29T16:43:27.777Z,166.00
2023-03-29T16:44:28.147Z,180.00
2023-03-29T16:45:28.886Z,195.00
2023-03-29T16:46:28.472Z,211.00
2023-03-29T16:47:28.552Z,206.00
2023-03-29T16:48:28.463Z,208.00
2023-03-29T16:49:28.477Z,196.00
2023-03-29T16:50:28.997Z,180.00
2023-03-29T16:51:30.067Z,149.00
2023-03-29T16:52:29.856Z,156.00
2023-03-29T16:53:30.089Z,175.00
2023-03-29T16:54:30.185Z,180.00
2023-03-29T16:55:29.745Z,173.00
2023-03-29T16:56:31.224Z,160.00
2023-03-29T16:57:29.717Z,139.00
2023-03-29T16:58:30.722Z,129.00
2023-03-29T16:59:30.282Z,120.00
2023-03-29T17:00:31.263Z,130.00
2023-03-29T17:01:31.575Z,124.00
2023-03-29T17:02:30.479Z,102.00
2023-03-29T17:03:30.846Z,91.00
2023-03-29T17:04:31.628Z,86.00
2023-03-29T17:05:31.760Z,82.00
2023-03-29T17:06:31.847Z,78.00
2023-03-29T17:07:31.152Z,85.00
2023-03-29T17:08:31.266Z,89.00
2023-03-29T17:09:32.653Z,84.00
2023-03-29T17:10:32.719Z,83.00
2023-03-29T17:11:31.714Z,79.00
2023-03-29T17:12:31.730Z,79.00
2023-03-29T17:13:32.822Z,72.00
2023-03-29T17:14:32.916Z,61.00
2023-03-29T17:15:33.857Z,56.00